sensor_id;sensor_type;location;lat;lon;timestamp;temperature;humidity
25208;DHT22;13153;52.316;21.166;2023-08-21T00:01:16;25.00;1.00
25208;DHT22;13153;52.316;21.166;2023-08-21T00:03:42;25.00;1.00
25208;DHT22;13153;52.316;21.166;2023-08-21T00:06:08;25.00;1.00
25208;DHT22;13153;52.316;21.166;2023-08-21T00:08:33;25.00;1.00
25208;DHT22;13153;52.316;21.166;2023-08-21T00:10:59;24.90;1.00
25208;DHT22;13153;52.316;21.166;2023-08-21T00:13:25;24.90;99.90
25208;DHT22;13153;52.316;21.166;2023-08-21T00:15:51;24.90;99.90
25208;DHT22;13153;52.316;21.166;2023-08-21T00:18:17;24.90;99.90
25208;DHT22;13153;52.316;21.166;2023-08-21T00:20:43;24.80;1.00
25208;DHT22;13153;52.316;21.166;2023-08-21T00:23:09;24.80;1.00
25208;DHT22;13153;52.316;21.166;2023-08-21T00:25:35;24.80;1.00
25208;DHT22;13153;52.316;21.166;2023-08-21T00:28:01;24.70;1.00
25208;DHT22;13153;52.316;21.166;2023-08-21T00:30:26;24.70;1.00
25208;DHT22;13153;52.316;21.166;2023-08-21T00:32:52;24.70;1.00
25208;DHT22;13153;52.316;21.166;2023-08-21T00:35:18;24.70;1.00
25208;DHT22;13153;52.316;21.166;2023-08-21T00:37:44;24.70;1.00
25208;DHT22;13153;52.316;21.166;2023-08-21T00:40:10;24.70;1.00
25208;DHT22;13153;52.316;21.166;2023-08-21T00:42:36;24.70;1.00
25208;DHT22;13153;52.316;21.166;2023-08-21T00:45:02;24.70;15.50
25208;DHT22;13153;52.316;21.166;2023-08-21T00:47:28;24.70;99.90
25208;DHT22;13153;52.316;21.166;2023-08-21T00:49:55;24.60;95.70
25208;DHT22;13153;52.316;21.166;2023-08-21T00:52:21;24.60;67.00
25208;DHT22;13153;52.316;21.166;2023-08-21T00:54:48;24.60;99.90
25208;DHT22;13153;52.316;21.166;2023-08-21T00:57:15;24.50;99.90
25208;DHT22;13153;52.316;21.166;2023-08-21T00:59:41;24.50;99.90
25208;DHT22;13153;52.316;21.166;2023-08-21T01:02:07;24.40;1.00
25208;DHT22;13153;52.316;21.166;2023-08-21T01:04:33;24.40;1.00
25208;DHT22;13153;52.316;21.166;2023-08-21T01:06:58;24.40;1.00
25208;DHT22;13153;52.316;21.166;2023-08-21T01:09:40;24.40;1.00
25208;DHT22;13153;52.316;21.166;2023-08-21T01:12:36;24.30;1.00
25208;DHT22;13153;52.316;21.166;2023-08-21T01:15:09;24.40;99.90
25208;DHT22;13153;52.316;21.166;2023-08-21T01:17:37;24.30;99.90
25208;DHT22;13153;52.316;21.166;2023-08-21T01:20:06;24.30;99.90
25208;DHT22;13153;52.316;21.166;2023-08-21T01:22:38;24.20;10.00
25208;DHT22;13153;52.316;21.166;2023-08-21T01:25:07;24.20;99.90
25208;DHT22;13153;52.316;21.166;2023-08-21T01:27:34;24.10;1.00
25208;DHT22;13153;52.316;21.166;2023-08-21T01:30:02;24.20;1.00
25208;DHT22;13153;52.316;21.166;2023-08-21T01:32:35;24.10;1.00
25208;DHT22;13153;52.316;21.166;2023-08-21T01:35:14;24.10;1.00
25208;DHT22;13153;52.316;21.166;2023-08-21T01:37:40;24.10;1.00
25208;DHT22;13153;52.316;21.166;2023-08-21T01:40:08;24.10;1.00
25208;DHT22;13153;52.316;21.166;2023-08-21T01:42:34;24.10;28.70
25208;DHT22;13153;52.316;21.166;2023-08-21T01:45:00;24.10;99.90
25208;DHT22;13153;52.316;21.166;2023-08-21T01:47:26;24.00;99.90
25208;DHT22;13153;52.316;21.166;2023-08-21T01:49:52;24.00;99.90
25208;DHT22;13153;52.316;21.166;2023-08-21T01:52:18;24.10;99.90
25208;DHT22;13153;52.316;21.166;2023-08-21T01:54:44;24.00;99.90
25208;DHT22;13153;52.316;21.166;2023-08-21T01:57:13;24.00;99.90
25208;DHT22;13153;52.316;21.166;2023-08-21T01:59:39;24.00;99.90
25208;DHT22;13153;52.316;21.166;2023-08-21T02:02:05;24.00;99.90
25208;DHT22;13153;52.316;21.166;2023-08-21T02:04:31;24.00;99.90
25208;DHT22;13153;52.316;21.166;2023-08-21T02:06:57;24.00;99.90
25208;DHT22;13153;52.316;21.166;2023-08-21T02:09:23;24.00;99.90
25208;DHT22;13153;52.316;21.166;2023-08-21T02:11:48;24.00;99.90
25208;DHT22;13153;52.316;21.166;2023-08-21T02:14:14;24.00;99.90
25208;DHT22;13153;52.316;21.166;2023-08-21T02:16:40;24.00;99.90
25208;DHT22;13153;52.316;21.166;2023-08-21T02:19:06;24.00;99.90
25208;DHT22;13153;52.316;21.166;2023-08-21T02:21:33;24.00;1.00
25208;DHT22;13153;52.316;21.166;2023-08-21T02:24:00;24.00;1.00
25208;DHT22;13153;52.316;21.166;2023-08-21T02:26:25;24.00;1.00
25208;DHT22;13153;52.316;21.166;2023-08-21T02:28:51;23.90;1.00
25208;DHT22;13153;52.316;21.166;2023-08-21T02:31:17;23.90;99.90
25208;DHT22;13153;52.316;21.166;2023-08-21T02:33:43;23.90;99.90
25208;DHT22;13153;52.316;21.166;2023-08-21T02:36:08;23.90;1.00
25208;DHT22;13153;52.316;21.166;2023-08-21T02:38:35;23.90;1.00
25208;DHT22;13153;52.316;21.166;2023-08-21T02:41:01;23.80;1.00
25208;DHT22;13153;52.316;21.166;2023-08-21T02:43:27;23.90;1.00
25208;DHT22;13153;52.316;21.166;2023-08-21T02:45:52;23.80;1.00
25208;DHT22;13153;52.316;21.166;2023-08-21T02:48:18;23.70;1.00
25208;DHT22;13153;52.316;21.166;2023-08-21T02:50:44;23.70;99.90
25208;DHT22;13153;52.316;21.166;2023-08-21T02:53:10;23.70;99.90
25208;DHT22;13153;52.316;21.166;2023-08-21T02:55:35;23.70;99.90
25208;DHT22;13153;52.316;21.166;2023-08-21T02:58:01;23.60;99.90
25208;DHT22;13153;52.316;21.166;2023-08-21T03:00:28;23.60;99.90
25208;DHT22;13153;52.316;21.166;2023-08-21T03:02:54;23.60;99.90
25208;DHT22;13153;52.316;21.166;2023-08-21T03:05:20;23.60;99.90
25208;DHT22;13153;52.316;21.166;2023-08-21T03:07:46;23.60;99.90
25208;DHT22;13153;52.316;21.166;2023-08-21T03:10:12;23.50;99.90
25208;DHT22;13153;52.316;21.166;2023-08-21T03:12:37;23.60;99.90
25208;DHT22;13153;52.316;21.166;2023-08-21T03:15:04;23.50;99.90
25208;DHT22;13153;52.316;21.166;2023-08-21T03:17:30;23.50;99.90
25208;DHT22;13153;52.316;21.166;2023-08-21T03:19:56;23.50;99.90
25208;DHT22;13153;52.316;21.166;2023-08-21T03:22:22;23.50;1.00
25208;DHT22;13153;52.316;21.166;2023-08-21T03:24:47;23.50;1.00
25208;DHT22;13153;52.316;21.166;2023-08-21T03:27:15;23.50;7.10
25208;DHT22;13153;52.316;21.166;2023-08-21T03:29:42;23.50;1.00
25208;DHT22;13153;52.316;21.166;2023-08-21T03:32:16;23.50;1.00
25208;DHT22;13153;52.316;21.166;2023-08-21T03:34:43;23.40;1.00
25208;DHT22;13153;52.316;21.166;2023-08-21T03:37:10;23.40;1.00
25208;DHT22;13153;52.316;21.166;2023-08-21T03:39:36;23.40;1.00
25208;DHT22;13153;52.316;21.166;2023-08-21T03:42:02;23.40;1.00
25208;DHT22;13153;52.316;21.166;2023-08-21T03:44:28;23.40;1.00
25208;DHT22;13153;52.316;21.166;2023-08-21T03:46:54;23.40;99.90
25208;DHT22;13153;52.316;21.166;2023-08-21T03:49:19;23.50;99.90
25208;DHT22;13153;52.316;21.166;2023-08-21T03:51:45;23.50;99.90
25208;DHT22;13153;52.316;21.166;2023-08-21T03:54:11;23.60;1.00
25208;DHT22;13153;52.316;21.166;2023-08-21T03:56:37;23.60;1.00
25208;DHT22;13153;52.316;21.166;2023-08-21T03:59:03;23.70;1.00
25208;DHT22;13153;52.316;21.166;2023-08-21T04:01:28;23.80;1.00
25208;DHT22;13153;52.316;21.166;2023-08-21T04:03:54;23.90;1.00
25208;DHT22;13153;52.316;21.166;2023-08-21T04:06:20;24.00;99.90
25208;DHT22;13153;52.316;21.166;2023-08-21T04:08:46;24.30;99.90
25208;DHT22;13153;52.316;21.166;2023-08-21T04:11:12;24.50;1.00
25208;DHT22;13153;52.316;21.166;2023-08-21T04:13:38;24.70;1.00
25208;DHT22;13153;52.316;21.166;2023-08-21T04:16:04;24.80;99.90
25208;DHT22;13153;52.316;21.166;2023-08-21T04:18:30;25.00;1.00
25208;DHT22;13153;52.316;21.166;2023-08-21T04:20:55;25.20;99.90
25208;DHT22;13153;52.316;21.166;2023-08-21T04:23:21;25.40;10.10
25208;DHT22;13153;52.316;21.166;2023-08-21T04:25:47;25.60;1.00
25208;DHT22;13153;52.316;21.166;2023-08-21T04:28:12;25.80;99.90
25208;DHT22;13153;52.316;21.166;2023-08-21T04:30:40;26.00;1.00
25208;DHT22;13153;52.316;21.166;2023-08-21T04:33:07;26.20;1.00
25208;DHT22;13153;52.316;21.166;2023-08-21T04:35:37;26.50;99.90
25208;DHT22;13153;52.316;21.166;2023-08-21T04:38:04;26.70;99.90
25208;DHT22;13153;52.316;21.166;2023-08-21T04:40:29;26.90;1.00
25208;DHT22;13153;52.316;21.166;2023-08-21T04:42:55;27.10;1.00
25208;DHT22;13153;52.316;21.166;2023-08-21T04:45:21;27.30;99.90
25208;DHT22;13153;52.316;21.166;2023-08-21T04:47:47;27.50;24.80
25208;DHT22;13153;52.316;21.166;2023-08-21T04:50:12;27.80;1.00
25208;DHT22;13153;52.316;21.166;2023-08-21T04:52:38;27.90;1.00
25208;DHT22;13153;52.316;21.166;2023-08-21T04:55:05;28.10;1.00
25208;DHT22;13153;52.316;21.166;2023-08-21T04:57:32;28.50;99.90
25208;DHT22;13153;52.316;21.166;2023-08-21T04:59:58;28.90;99.90
25208;DHT22;13153;52.316;21.166;2023-08-21T05:02:24;29.20;1.00
25208;DHT22;13153;52.316;21.166;2023-08-21T05:04:49;29.20;1.00
25208;DHT22;13153;52.316;21.166;2023-08-21T05:07:15;28.80;1.00
25208;DHT22;13153;52.316;21.166;2023-08-21T05:09:41;28.30;1.00
25208;DHT22;13153;52.316;21.166;2023-08-21T05:12:08;27.80;1.00
25208;DHT22;13153;52.316;21.166;2023-08-21T05:17:18;27.00;99.90
25208;DHT22;13153;52.316;21.166;2023-08-21T05:19:44;26.80;99.90
25208;DHT22;13153;52.316;21.166;2023-08-21T05:22:10;26.60;99.90
25208;DHT22;13153;52.316;21.166;2023-08-21T05:24:35;26.30;1.00
25208;DHT22;13153;52.316;21.166;2023-08-21T05:27:01;26.20;1.00
25208;DHT22;13153;52.316;21.166;2023-08-21T05:29:27;26.20;1.00
25208;DHT22;13153;52.316;21.166;2023-08-21T05:31:53;26.10;1.00
25208;DHT22;13153;52.316;21.166;2023-08-21T05:34:18;26.30;1.00
25208;DHT22;13153;52.316;21.166;2023-08-21T05:36:44;27.00;1.00
25208;DHT22;13153;52.316;21.166;2023-08-21T05:39:10;27.80;1.00
25208;DHT22;13153;52.316;21.166;2023-08-21T05:41:36;28.10;99.90
25208;DHT22;13153;52.316;21.166;2023-08-21T05:44:02;28.30;99.90
25208;DHT22;13153;52.316;21.166;2023-08-21T05:46:28;28.50;99.90
25208;DHT22;13153;52.316;21.166;2023-08-21T05:48:54;28.60;1.00
25208;DHT22;13153;52.316;21.166;2023-08-21T05:51:19;28.50;1.00
25208;DHT22;13153;52.316;21.166;2023-08-21T05:53:45;28.30;1.00
25208;DHT22;13153;52.316;21.166;2023-08-21T05:56:11;28.20;1.00
25208;DHT22;13153;52.316;21.166;2023-08-21T05:58:37;28.00;1.00
25208;DHT22;13153;52.316;21.166;2023-08-21T06:01:03;28.00;21.00
25208;DHT22;13153;52.316;21.166;2023-08-21T06:03:28;28.00;23.30
25208;DHT22;13153;52.316;21.166;2023-08-21T06:05:54;28.20;18.50
25208;DHT22;13153;52.316;21.166;2023-08-21T06:08:20;28.40;1.00
25208;DHT22;13153;52.316;21.166;2023-08-21T06:10:51;28.60;1.00
25208;DHT22;13153;52.316;21.166;2023-08-21T06:13:17;28.50;1.00
25208;DHT22;13153;52.316;21.166;2023-08-21T06:15:43;28.40;1.00
25208;DHT22;13153;52.316;21.166;2023-08-21T06:18:10;28.50;1.00
25208;DHT22;13153;52.316;21.166;2023-08-21T06:20:36;29.10;1.00
25208;DHT22;13153;52.316;21.166;2023-08-21T06:23:02;30.40;1.00
25208;DHT22;13153;52.316;21.166;2023-08-21T06:25:28;31.50;99.90
25208;DHT22;13153;52.316;21.166;2023-08-21T06:27:56;32.30;99.90
25208;DHT22;13153;52.316;21.166;2023-08-21T06:30:21;33.00;93.30
25208;DHT22;13153;52.316;21.166;2023-08-21T06:32:47;33.70;1.00
25208;DHT22;13153;52.316;21.166;2023-08-21T06:35:14;34.20;1.00
25208;DHT22;13153;52.316;21.166;2023-08-21T06:37:40;34.50;1.00
25208;DHT22;13153;52.316;21.166;2023-08-21T06:40:06;34.80;1.00
25208;DHT22;13153;52.316;21.166;2023-08-21T06:42:33;35.00;1.00
25208;DHT22;13153;52.316;21.166;2023-08-21T06:44:58;34.90;1.00
25208;DHT22;13153;52.316;21.166;2023-08-21T06:47:24;34.50;49.30
25208;DHT22;13153;52.316;21.166;2023-08-21T06:49:50;34.20;1.00
25208;DHT22;13153;52.316;21.166;2023-08-21T06:52:17;33.50;1.00
25208;DHT22;13153;52.316;21.166;2023-08-21T06:54:43;32.80;1.00
25208;DHT22;13153;52.316;21.166;2023-08-21T06:57:08;32.10;1.00
25208;DHT22;13153;52.316;21.166;2023-08-21T06:59:34;31.40;1.00
25208;DHT22;13153;52.316;21.166;2023-08-21T07:02:02;31.40;1.00
25208;DHT22;13153;52.316;21.166;2023-08-21T07:04:28;31.60;1.00
25208;DHT22;13153;52.316;21.166;2023-08-21T07:06:54;32.10;1.00
25208;DHT22;13153;52.316;21.166;2023-08-21T07:09:20;32.60;1.00
25208;DHT22;13153;52.316;21.166;2023-08-21T07:11:46;32.80;1.00
25208;DHT22;13153;52.316;21.166;2023-08-21T07:14:12;32.60;1.00
25208;DHT22;13153;52.316;21.166;2023-08-21T07:16:42;32.20;1.00
25208;DHT22;13153;52.316;21.166;2023-08-21T07:19:08;32.00;30.70
25208;DHT22;13153;52.316;21.166;2023-08-21T07:21:35;31.80;57.90
25208;DHT22;13153;52.316;21.166;2023-08-21T07:24:04;31.80;3.40
25208;DHT22;13153;52.316;21.166;2023-08-21T07:26:31;31.90;80.00
25208;DHT22;13153;52.316;21.166;2023-08-21T07:28:57;32.00;64.20
25208;DHT22;13153;52.316;21.166;2023-08-21T07:31:23;31.80;47.80
25208;DHT22;13153;52.316;21.166;2023-08-21T07:33:49;31.50;63.40
25208;DHT22;13153;52.316;21.166;2023-08-21T07:36:14;31.10;99.90
25208;DHT22;13153;52.316;21.166;2023-08-21T07:38:45;30.70;99.90
25208;DHT22;13153;52.316;21.166;2023-08-21T07:41:12;30.40;99.90
25208;DHT22;13153;52.316;21.166;2023-08-21T07:43:41;30.10;99.90
25208;DHT22;13153;52.316;21.166;2023-08-21T07:46:10;29.80;21.40
25208;DHT22;13153;52.316;21.166;2023-08-21T07:48:39;29.60;69.60
25208;DHT22;13153;52.316;21.166;2023-08-21T07:51:05;29.40;75.00
25208;DHT22;13153;52.316;21.166;2023-08-21T07:53:31;29.20;31.60
25208;DHT22;13153;52.316;21.166;2023-08-21T07:55:58;29.10;41.90
25208;DHT22;13153;52.316;21.166;2023-08-21T07:58:24;29.00;99.90
25208;DHT22;13153;52.316;21.166;2023-08-21T08:00:49;28.90;99.90
25208;DHT22;13153;52.316;21.166;2023-08-21T08:03:15;28.80;21.90
25208;DHT22;13153;52.316;21.166;2023-08-21T08:05:42;28.80;16.60
25208;DHT22;13153;52.316;21.166;2023-08-21T08:08:11;28.80;1.00
25208;DHT22;13153;52.316;21.166;2023-08-21T08:10:40;28.70;1.00
25208;DHT22;13153;52.316;21.166;2023-08-21T08:13:07;28.70;1.00
25208;DHT22;13153;52.316;21.166;2023-08-21T08:15:33;28.60;1.00
25208;DHT22;13153;52.316;21.166;2023-08-21T08:18:01;28.70;1.00
25208;DHT22;13153;52.316;21.166;2023-08-21T08:20:28;28.70;1.00
25208;DHT22;13153;52.316;21.166;2023-08-21T08:22:54;28.80;1.00
25208;DHT22;13153;52.316;21.166;2023-08-21T08:25:19;29.00;1.00
25208;DHT22;13153;52.316;21.166;2023-08-21T08:27:45;29.20;1.00
25208;DHT22;13153;52.316;21.166;2023-08-21T08:30:11;29.40;1.00
25208;DHT22;13153;52.316;21.166;2023-08-21T08:32:37;29.50;1.00
25208;DHT22;13153;52.316;21.166;2023-08-21T08:35:05;29.80;1.00
25208;DHT22;13153;52.316;21.166;2023-08-21T08:37:32;29.80;1.00
25208;DHT22;13153;52.316;21.166;2023-08-21T08:39:58;30.00;1.00
25208;DHT22;13153;52.316;21.166;2023-08-21T08:42:24;30.10;1.00
25208;DHT22;13153;52.316;21.166;2023-08-21T08:44:50;30.10;1.00
25208;DHT22;13153;52.316;21.166;2023-08-21T08:47:19;30.20;1.00
25208;DHT22;13153;52.316;21.166;2023-08-21T08:49:47;30.10;1.00
25208;DHT22;13153;52.316;21.166;2023-08-21T08:52:16;30.00;1.00
25208;DHT22;13153;52.316;21.166;2023-08-21T08:54:44;29.90;1.00
25208;DHT22;13153;52.316;21.166;2023-08-21T08:57:11;29.90;1.00
25208;DHT22;13153;52.316;21.166;2023-08-21T08:59:36;29.90;1.00
25208;DHT22;13153;52.316;21.166;2023-08-21T09:02:02;30.00;1.00
25208;DHT22;13153;52.316;21.166;2023-08-21T09:04:28;30.00;1.00
25208;DHT22;13153;52.316;21.166;2023-08-21T09:07:06;30.10;1.00
25208;DHT22;13153;52.316;21.166;2023-08-21T09:09:40;30.20;1.00
25208;DHT22;13153;52.316;21.166;2023-08-21T09:12:11;30.20;1.00
25208;DHT22;13153;52.316;21.166;2023-08-21T09:14:40;30.30;1.00
25208;DHT22;13153;52.316;21.166;2023-08-21T09:17:07;30.40;1.00
25208;DHT22;13153;52.316;21.166;2023-08-21T09:19:33;30.50;1.00
25208;DHT22;13153;52.316;21.166;2023-08-21T09:22:08;30.50;1.00
25208;DHT22;13153;52.316;21.166;2023-08-21T09:24:41;30.40;1.00
25208;DHT22;13153;52.316;21.166;2023-08-21T09:27:37;30.40;1.00
25208;DHT22;13153;52.316;21.166;2023-08-21T09:30:11;30.30;1.00
25208;DHT22;13153;52.316;21.166;2023-08-21T09:32:58;30.20;1.00
25208;DHT22;13153;52.316;21.166;2023-08-21T09:35:26;30.30;1.00
25208;DHT22;13153;52.316;21.166;2023-08-21T09:37:52;30.30;1.00
25208;DHT22;13153;52.316;21.166;2023-08-21T09:40:19;30.40;1.00
25208;DHT22;13153;52.316;21.166;2023-08-21T09:42:45;30.40;1.00
25208;DHT22;13153;52.316;21.166;2023-08-21T09:45:20;30.30;1.00
25208;DHT22;13153;52.316;21.166;2023-08-21T09:47:53;30.20;1.00
25208;DHT22;13153;52.316;21.166;2023-08-21T09:50:19;30.10;1.00
25208;DHT22;13153;52.316;21.166;2023-08-21T09:52:47;30.10;1.00
25208;DHT22;13153;52.316;21.166;2023-08-21T09:55:14;30.00;1.00
25208;DHT22;13153;52.316;21.166;2023-08-21T09:57:41;30.10;1.00
25208;DHT22;13153;52.316;21.166;2023-08-21T10:00:07;30.10;1.00
25208;DHT22;13153;52.316;21.166;2023-08-21T10:02:45;30.20;1.00
25208;DHT22;13153;52.316;21.166;2023-08-21T10:05:16;30.30;1.00
25208;DHT22;13153;52.316;21.166;2023-08-21T10:07:44;30.30;1.00
25208;DHT22;13153;52.316;21.166;2023-08-21T10:10:14;30.20;1.00
25208;DHT22;13153;52.316;21.166;2023-08-21T10:12:40;30.10;1.00
25208;DHT22;13153;52.316;21.166;2023-08-21T10:15:07;30.00;1.00
25208;DHT22;13153;52.316;21.166;2023-08-21T10:17:37;29.90;1.00
25208;DHT22;13153;52.316;21.166;2023-08-21T10:20:07;29.80;1.00
25208;DHT22;13153;52.316;21.166;2023-08-21T10:22:48;29.70;1.00
25208;DHT22;13153;52.316;21.166;2023-08-21T10:25:16;29.60;1.00
25208;DHT22;13153;52.316;21.166;2023-08-21T10:27:42;29.50;1.00
25208;DHT22;13153;52.316;21.166;2023-08-21T10:30:19;29.40;1.00
25208;DHT22;13153;52.316;21.166;2023-08-21T10:32:48;29.40;1.00
25208;DHT22;13153;52.316;21.166;2023-08-21T10:35:19;29.40;1.00
25208;DHT22;13153;52.316;21.166;2023-08-21T10:38:13;29.30;1.00
25208;DHT22;13153;52.316;21.166;2023-08-21T10:41:04;29.20;1.00
25208;DHT22;13153;52.316;21.166;2023-08-21T10:43:45;29.20;1.00
25208;DHT22;13153;52.316;21.166;2023-08-21T10:46:12;29.10;1.00
25208;DHT22;13153;52.316;21.166;2023-08-21T10:48:39;29.10;1.00
25208;DHT22;13153;52.316;21.166;2023-08-21T10:51:06;29.00;1.00
25208;DHT22;13153;52.316;21.166;2023-08-21T10:53:35;29.00;1.00
25208;DHT22;13153;52.316;21.166;2023-08-21T10:56:05;28.90;1.00
25208;DHT22;13153;52.316;21.166;2023-08-21T10:58:38;28.80;1.00
25208;DHT22;13153;52.316;21.166;2023-08-21T11:01:06;28.70;1.00
25208;DHT22;13153;52.316;21.166;2023-08-21T11:03:32;28.70;1.00
25208;DHT22;13153;52.316;21.166;2023-08-21T11:06:07;28.70;1.00
25208;DHT22;13153;52.316;21.166;2023-08-21T11:08:35;28.60;1.00
25208;DHT22;13153;52.316;21.166;2023-08-21T11:11:03;28.60;1.00
25208;DHT22;13153;52.316;21.166;2023-08-21T11:13:30;28.50;1.00
25208;DHT22;13153;52.316;21.166;2023-08-21T11:16:01;28.50;1.00
25208;DHT22;13153;52.316;21.166;2023-08-21T11:18:37;28.50;1.00
25208;DHT22;13153;52.316;21.166;2023-08-21T11:21:07;28.40;1.00
25208;DHT22;13153;52.316;21.166;2023-08-21T11:23:39;28.40;1.00
25208;DHT22;13153;52.316;21.166;2023-08-21T11:26:09;28.40;1.00
25208;DHT22;13153;52.316;21.166;2023-08-21T11:28:36;28.30;1.00
25208;DHT22;13153;52.316;21.166;2023-08-21T11:31:02;28.30;1.00
25208;DHT22;13153;52.316;21.166;2023-08-21T11:33:28;28.30;1.00
25208;DHT22;13153;52.316;21.166;2023-08-21T11:35:55;28.20;1.00
25208;DHT22;13153;52.316;21.166;2023-08-21T11:38:23;28.20;97.80
25208;DHT22;13153;52.316;21.166;2023-08-21T11:40:58;28.20;99.90
25208;DHT22;13153;52.316;21.166;2023-08-21T11:43:57;28.10;99.90
25208;DHT22;13153;52.316;21.166;2023-08-21T11:46:28;28.00;99.90
25208;DHT22;13153;52.316;21.166;2023-08-21T11:48:54;28.00;99.90
25208;DHT22;13153;52.316;21.166;2023-08-21T11:51:20;28.00;99.90
25208;DHT22;13153;52.316;21.166;2023-08-21T11:53:47;28.10;99.90
25208;DHT22;13153;52.316;21.166;2023-08-21T11:56:17;28.10;99.90
25208;DHT22;13153;52.316;21.166;2023-08-21T11:58:46;28.10;99.90
25208;DHT22;13153;52.316;21.166;2023-08-21T12:01:20;28.10;99.90
25208;DHT22;13153;52.316;21.166;2023-08-21T12:03:48;28.20;99.90
25208;DHT22;13153;52.316;21.166;2023-08-21T12:06:21;28.30;99.90
25208;DHT22;13153;52.316;21.166;2023-08-21T12:08:47;28.50;99.90
25208;DHT22;13153;52.316;21.166;2023-08-21T12:11:13;28.60;99.90
25208;DHT22;13153;52.316;21.166;2023-08-21T12:13:39;28.70;1.00
25208;DHT22;13153;52.316;21.166;2023-08-21T12:16:04;28.70;99.90
25208;DHT22;13153;52.316;21.166;2023-08-21T12:18:30;28.70;99.90
25208;DHT22;13153;52.316;21.166;2023-08-21T12:20:56;28.60;99.90
25208;DHT22;13153;52.316;21.166;2023-08-21T12:23:22;28.60;99.90
25208;DHT22;13153;52.316;21.166;2023-08-21T12:25:48;28.60;99.90
25208;DHT22;13153;52.316;21.166;2023-08-21T12:28:14;28.60;99.90
25208;DHT22;13153;52.316;21.166;2023-08-21T12:30:40;28.50;99.90
25208;DHT22;13153;52.316;21.166;2023-08-21T12:33:06;28.50;99.90
25208;DHT22;13153;52.316;21.166;2023-08-21T12:35:31;28.40;99.90
25208;DHT22;13153;52.316;21.166;2023-08-21T12:37:58;28.30;99.90
25208;DHT22;13153;52.316;21.166;2023-08-21T12:40:24;28.30;1.00
25208;DHT22;13153;52.316;21.166;2023-08-21T12:42:50;28.30;99.90
25208;DHT22;13153;52.316;21.166;2023-08-21T12:45:16;28.30;99.90
25208;DHT22;13153;52.316;21.166;2023-08-21T12:47:43;28.30;99.90
25208;DHT22;13153;52.316;21.166;2023-08-21T12:50:09;28.30;99.90
25208;DHT22;13153;52.316;21.166;2023-08-21T12:52:35;28.30;99.90
25208;DHT22;13153;52.316;21.166;2023-08-21T12:55:01;28.30;1.00
25208;DHT22;13153;52.316;21.166;2023-08-21T12:57:30;28.30;1.00
25208;DHT22;13153;52.316;21.166;2023-08-21T12:59:55;28.20;1.00
25208;DHT22;13153;52.316;21.166;2023-08-21T13:02:21;28.20;1.00
25208;DHT22;13153;52.316;21.166;2023-08-21T13:04:48;28.20;1.00
25208;DHT22;13153;52.316;21.166;2023-08-21T13:07:14;28.20;1.00
25208;DHT22;13153;52.316;21.166;2023-08-21T13:09:40;28.20;1.00
25208;DHT22;13153;52.316;21.166;2023-08-21T13:12:06;28.30;1.00
25208;DHT22;13153;52.316;21.166;2023-08-21T13:14:33;28.30;1.00
25208;DHT22;13153;52.316;21.166;2023-08-21T13:16:59;28.30;37.60
25208;DHT22;13153;52.316;21.166;2023-08-21T13:19:25;28.30;1.00
25208;DHT22;13153;52.316;21.166;2023-08-21T13:21:51;28.30;1.00
25208;DHT22;13153;52.316;21.166;2023-08-21T13:24:17;28.20;1.00
25208;DHT22;13153;52.316;21.166;2023-08-21T13:26:42;28.20;99.90
25208;DHT22;13153;52.316;21.166;2023-08-21T13:29:09;28.20;99.90
25208;DHT22;13153;52.316;21.166;2023-08-21T13:31:34;28.10;1.00
25208;DHT22;13153;52.316;21.166;2023-08-21T13:34:00;28.10;1.00
25208;DHT22;13153;52.316;21.166;2023-08-21T13:36:27;28.10;1.00
25208;DHT22;13153;52.316;21.166;2023-08-21T13:38:52;28.20;1.00
25208;DHT22;13153;52.316;21.166;2023-08-21T13:41:18;28.20;99.90
25208;DHT22;13153;52.316;21.166;2023-08-21T13:43:44;28.20;1.00
25208;DHT22;13153;52.316;21.166;2023-08-21T13:46:10;28.20;99.90
25208;DHT22;13153;52.316;21.166;2023-08-21T13:48:36;28.20;1.00
25208;DHT22;13153;52.316;21.166;2023-08-21T13:51:01;28.10;1.00
25208;DHT22;13153;52.316;21.166;2023-08-21T13:53:27;28.10;1.00
25208;DHT22;13153;52.316;21.166;2023-08-21T13:55:53;28.10;1.00
25208;DHT22;13153;52.316;21.166;2023-08-21T13:58:19;28.10;1.00
25208;DHT22;13153;52.316;21.166;2023-08-21T14:00:44;28.10;1.00
25208;DHT22;13153;52.316;21.166;2023-08-21T14:03:10;28.10;1.00
25208;DHT22;13153;52.316;21.166;2023-08-21T14:05:36;28.10;1.00
25208;DHT22;13153;52.316;21.166;2023-08-21T14:08:02;28.10;1.00
25208;DHT22;13153;52.316;21.166;2023-08-21T14:10:28;28.10;1.00
25208;DHT22;13153;52.316;21.166;2023-08-21T14:12:55;28.10;1.00
25208;DHT22;13153;52.316;21.166;2023-08-21T14:15:22;28.10;1.00
25208;DHT22;13153;52.316;21.166;2023-08-21T14:17:48;28.10;1.00
25208;DHT22;13153;52.316;21.166;2023-08-21T14:20:15;28.00;1.00
25208;DHT22;13153;52.316;21.166;2023-08-21T14:22:41;28.00;1.00
25208;DHT22;13153;52.316;21.166;2023-08-21T14:25:07;28.00;1.00
25208;DHT22;13153;52.316;21.166;2023-08-21T14:27:33;28.00;1.00
25208;DHT22;13153;52.316;21.166;2023-08-21T14:29:59;27.90;1.00
25208;DHT22;13153;52.316;21.166;2023-08-21T14:32:25;27.90;1.00
25208;DHT22;13153;52.316;21.166;2023-08-21T14:34:52;27.90;1.00
25208;DHT22;13153;52.316;21.166;2023-08-21T14:37:19;28.00;1.00
25208;DHT22;13153;52.316;21.166;2023-08-21T14:39:46;28.00;1.00
25208;DHT22;13153;52.316;21.166;2023-08-21T14:42:13;28.00;1.00
25208;DHT22;13153;52.316;21.166;2023-08-21T14:44:39;28.00;1.00
25208;DHT22;13153;52.316;21.166;2023-08-21T14:47:04;28.00;1.00
25208;DHT22;13153;52.316;21.166;2023-08-21T14:49:31;28.00;1.00
25208;DHT22;13153;52.316;21.166;2023-08-21T14:51:58;27.90;1.00
25208;DHT22;13153;52.316;21.166;2023-08-21T14:54:24;27.90;1.00
25208;DHT22;13153;52.316;21.166;2023-08-21T14:56:50;27.90;1.00
25208;DHT22;13153;52.316;21.166;2023-08-21T14:59:16;27.80;1.00
25208;DHT22;13153;52.316;21.166;2023-08-21T15:01:42;27.80;1.00
25208;DHT22;13153;52.316;21.166;2023-08-21T15:04:08;27.80;1.00
25208;DHT22;13153;52.316;21.166;2023-08-21T15:06:36;27.70;1.00
25208;DHT22;13153;52.316;21.166;2023-08-21T15:09:05;27.70;1.00
25208;DHT22;13153;52.316;21.166;2023-08-21T15:11:32;27.80;1.00
25208;DHT22;13153;52.316;21.166;2023-08-21T15:14:01;27.80;1.00
25208;DHT22;13153;52.316;21.166;2023-08-21T15:16:29;27.90;1.00
25208;DHT22;13153;52.316;21.166;2023-08-21T15:18:56;27.90;1.00
25208;DHT22;13153;52.316;21.166;2023-08-21T15:21:23;27.90;1.00
25208;DHT22;13153;52.316;21.166;2023-08-21T15:23:49;27.90;1.00
25208;DHT22;13153;52.316;21.166;2023-08-21T15:26:16;27.90;1.00
25208;DHT22;13153;52.316;21.166;2023-08-21T15:28:42;27.90;1.00